Time;durP1;ratioP1;P1;durP2;ratioP2;P2;SDS_P1;SDS_P2;PMS_P1;PMS_P2;Temp;Humidity;BMP_temperature;BMP_pressure;BME280_temperature;BME280_humidity;BME280_pressure;Samples;Min_cycle;Max_cycle;Signal;HPM_P1;HPM_P2
2023/06/30 00:00:41;;;;;;;1.23;0.77;;;18.50;99.90;;;;;;4966185;28;20050;-78
2023/06/30 00:03:08;;;;;;;0.90;0.73;;;18.50;99.90;;;;;;4999377;28;20139;-78
2023/06/30 00:05:36;;;;;;;1.27;1.00;;;18.50;99.90;;;;;;4982617;28;20042;-78
2023/06/30 00:08:03;;;;;;;1.17;0.80;;;18.50;99.90;;;;;;4965527;28;20044;-77
2023/06/30 00:10:30;;;;;;;1.35;0.80;;;18.50;99.90;;;;;;4965482;28;20401;-78
2023/06/30 00:12:56;;;;;;;0.90;0.80;;;18.50;99.90;;;;;;4999341;28;20125;-78
2023/06/30 00:15:23;;;;;;;0.90;0.68;;;18.50;99.90;;;;;;4961690;28;20060;-78
2023/06/30 00:17:52;;;;;;;1.20;0.73;;;18.40;99.90;;;;;;4979632;28;20549;-77
2023/06/30 00:20:21;;;;;;;0.88;0.70;;;18.30;99.90;;;;;;4962737;28;20164;-78
2023/06/30 00:22:47;;;;;;;1.17;0.80;;;18.20;99.90;;;;;;4978614;28;20108;-78
2023/06/30 00:25:14;;;;;;;1.55;0.95;;;18.20;99.90;;;;;;4949397;28;20062;-77
2023/06/30 00:27:41;;;;;;;1.20;0.77;;;18.00;99.90;;;;;;4976269;28;20057;-78
2023/06/30 00:30:08;;;;;;;1.13;0.98;;;17.90;99.90;;;;;;4991341;28;20054;-78
2023/06/30 00:32:35;;;;;;;0.85;0.70;;;17.90;99.90;;;;;;4992876;28;20049;-78
2023/06/30 00:35:02;;;;;;;0.77;0.77;;;17.90;99.90;;;;;;4968856;28;20049;-79
2023/06/30 00:37:28;;;;;;;0.98;0.70;;;17.90;99.90;;;;;;4996749;28;20076;-79
2023/06/30 00:39:55;;;;;;;1.15;0.90;;;17.80;99.90;;;;;;5013295;28;20106;-79
2023/06/30 00:42:22;;;;;;;1.17;0.93;;;17.70;99.90;;;;;;4985826;28;20120;-81
2023/06/30 00:44:49;;;;;;;1.38;0.98;;;17.60;99.90;;;;;;4985990;28;20053;-78
2023/06/30 00:47:15;;;;;;;1.50;0.90;;;17.40;99.90;;;;;;4977808;28;20057;-78
2023/06/30 00:49:42;;;;;;;1.77;0.90;;;17.30;99.90;;;;;;4996984;28;20046;-78
2023/06/30 00:52:09;;;;;;;1.23;0.90;;;17.30;99.90;;;;;;4970571;28;20115;-77
2023/06/30 00:54:36;;;;;;;1.30;0.85;;;17.20;99.90;;;;;;4968495;28;20240;-80
2023/06/30 00:57:05;;;;;;;0.90;0.70;;;17.20;99.90;;;;;;4977489;28;20696;-79
2023/06/30 00:59:32;;;;;;;1.10;1.00;;;17.10;99.90;;;;;;4982034;28;20116;-79
2023/06/30 01:02:01;;;;;;;1.13;0.80;;;17.10;99.90;;;;;;5008609;28;20046;-80
2023/06/30 01:04:56;;;;;;;1.15;0.90;;;17.20;99.90;;;;;;4979847;28;20150;-79
2023/06/30 01:07:41;;;;;;;1.30;0.90;;;17.10;99.90;;;;;;5005007;28;20133;-79
2023/06/30 01:10:14;;;;;;;1.02;0.80;;;16.90;99.90;;;;;;4977607;28;20049;-80
2023/06/30 01:12:41;;;;;;;0.63;0.63;;;16.80;99.90;;;;;;4971548;28;20053;-79
2023/06/30 01:15:08;;;;;;;1.05;0.77;;;16.70;99.90;;;;;;4972095;28;20342;-79
2023/06/30 01:17:35;;;;;;;0.65;0.65;;;16.70;99.90;;;;;;4966932;28;20053;-79
2023/06/30 01:20:04;;;;;;;1.40;0.80;;;16.50;99.90;;;;;;4973714;28;20089;-79
2023/06/30 01:22:44;;;;;;;1.25;1.00;;;16.40;99.90;;;;;;4999616;28;20081;-78
2023/06/30 01:25:22;;;;;;;1.50;1.02;;;16.40;99.90;;;;;;4986204;28;20081;-78
2023/06/30 01:27:49;;;;;;;0.85;0.73;;;16.20;99.90;;;;;;4973177;28;20397;-78
2023/06/30 01:30:17;;;;;;;1.23;0.75;;;16.30;99.90;;;;;;4984287;28;20042;-78
2023/06/30 01:32:45;;;;;;;0.88;0.70;;;16.20;99.90;;;;;;4982347;28;20049;-78
2023/06/30 01:35:12;;;;;;;0.90;0.80;;;16.20;99.90;;;;;;4973201;28;20659;-78
2023/06/30 01:37:39;;;;;;;0.77;0.77;;;16.30;99.90;;;;;;5000558;28;20046;-78
2023/06/30 01:40:06;;;;;;;1.42;0.77;;;16.30;99.90;;;;;;4994376;28;20124;-78
2023/06/30 01:42:33;;;;;;;0.98;0.80;;;16.20;99.90;;;;;;4984716;28;20272;-78
2023/06/30 01:45:00;;;;;;;0.77;0.77;;;16.20;99.90;;;;;;4975476;28;20136;-79
2023/06/30 01:47:26;;;;;;;0.93;0.60;;;16.10;99.90;;;;;;4971491;28;20420;-79
2023/06/30 01:49:53;;;;;;;1.13;0.73;;;16.00;99.90;;;;;;4980953;28;20065;-78
2023/06/30 01:52:20;;;;;;;0.82;0.73;;;16.00;99.90;;;;;;4979981;28;20042;-79
2023/06/30 01:54:47;;;;;;;1.40;1.02;;;16.00;99.90;;;;;;4976219;28;20136;-78
2023/06/30 01:57:13;;;;;;;0.82;0.80;;;15.90;99.90;;;;;;4995956;28;20085;-79
2023/06/30 01:59:40;;;;;;;1.00;0.80;;;15.90;99.90;;;;;;4979960;28;20073;-77
2023/06/30 02:02:07;;;;;;;1.23;0.80;;;15.80;99.90;;;;;;4955735;28;20057;-79
2023/06/30 02:04:34;;;;;;;0.98;0.85;;;15.80;99.90;;;;;;4959557;28;20042;-78
2023/06/30 02:07:00;;;;;;;0.90;0.77;;;15.70;99.90;;;;;;4961972;28;20046;-79
2023/06/30 02:09:27;;;;;;;1.20;0.80;;;15.70;99.90;;;;;;5004013;28;20057;-78
2023/06/30 02:12:13;;;;;;;1.58;0.85;;;15.70;99.90;;;;;;4986117;28;20157;-79
2023/06/30 02:14:39;;;;;;;0.90;0.68;;;15.70;99.90;;;;;;5002827;28;20099;-78
2023/06/30 02:17:08;;;;;;;0.85;0.70;;;15.60;99.90;;;;;;4982000;28;20046;-78
2023/06/30 02:19:35;;;;;;;1.13;0.80;;;15.50;99.90;;;;;;4986782;28;20050;-79
2023/06/30 02:22:02;;;;;;;1.02;0.70;;;15.50;99.90;;;;;;4995997;28;20054;-78
2023/06/30 02:24:29;;;;;;;1.23;0.70;;;15.50;99.90;;;;;;4972494;28;20175;-78
2023/06/30 02:26:55;;;;;;;2.28;0.98;;;15.50;99.90;;;;;;5022797;28;20057;-78
2023/06/30 02:29:22;;;;;;;1.45;0.80;;;15.50;99.90;;;;;;4973379;28;20046;-78
2023/06/30 02:31:49;;;;;;;0.98;0.80;;;15.40;99.90;;;;;;5004659;28;20049;-77
2023/06/30 02:34:16;;;;;;;0.98;0.75;;;15.40;99.90;;;;;;5004369;28;20048;-78
2023/06/30 02:36:43;;;;;;;0.90;0.80;;;15.40;99.90;;;;;;4996805;28;20049;-78
2023/06/30 02:39:09;;;;;;;1.02;0.80;;;15.40;99.90;;;;;;5003255;28;20046;-78
2023/06/30 02:41:36;;;;;;;1.20;0.70;;;15.40;99.90;;;;;;5006295;28;20049;-78
2023/06/30 02:44:03;;;;;;;1.70;1.00;;;15.40;99.90;;;;;;4988689;28;20053;-79
2023/06/30 02:46:30;;;;;;;1.17;0.77;;;15.40;99.90;;;;;;4980455;28;20152;-78
2023/06/30 02:48:57;;;;;;;1.58;0.88;;;15.40;99.90;;;;;;4992656;28;20052;-80
2023/06/30 02:51:23;;;;;;;0.65;0.65;;;15.30;99.90;;;;;;4988299;28;20050;-78
2023/06/30 02:53:50;;;;;;;0.45;0.45;;;15.20;99.90;;;;;;4994795;28;20096;-77
2023/06/30 02:56:17;;;;;;;0.85;0.73;;;15.20;99.90;;;;;;5010131;28;20045;-78
2023/06/30 02:58:44;;;;;;;0.70;0.60;;;15.20;99.90;;;;;;5007587;28;20048;-78
2023/06/30 03:01:11;;;;;;;1.15;0.80;;;15.20;99.90;;;;;;4971635;28;20065;-78
2023/06/30 03:03:38;;;;;;;1.17;0.77;;;15.10;99.90;;;;;;5001919;28;20046;-78
2023/06/30 03:06:06;;;;;;;0.55;0.55;;;15.00;99.90;;;;;;4965289;28;20125;-78
2023/06/30 03:08:33;;;;;;;1.40;0.80;;;14.90;99.90;;;;;;5019435;28;20041;-78
2023/06/30 03:11:00;;;;;;;1.30;0.70;;;14.90;99.90;;;;;;4967489;28;20096;-78
2023/06/30 03:13:27;;;;;;;0.55;0.55;;;14.80;99.90;;;;;;4975615;28;20058;-78
2023/06/30 03:15:54;;;;;;;1.00;0.70;;;14.80;99.90;;;;;;5005105;28;20137;-78
2023/06/30 03:18:20;;;;;;;1.05;0.77;;;14.80;99.90;;;;;;5007256;28;20041;-79
2023/06/30 03:20:47;;;;;;;1.15;0.90;;;14.70;99.90;;;;;;5022361;28;20127;-78
2023/06/30 03:23:14;;;;;;;0.70;0.55;;;14.60;99.90;;;;;;5000074;28;20736;-77
2023/06/30 03:25:41;;;;;;;1.00;0.63;;;14.50;99.90;;;;;;5001942;28;20041;-79
2023/06/30 03:28:08;;;;;;;0.80;0.68;;;14.50;99.90;;;;;;5013571;28;20045;-79
2023/06/30 03:30:35;;;;;;;1.00;0.70;;;14.40;99.90;;;;;;5005842;28;20125;-79
2023/06/30 03:33:01;;;;;;;0.80;0.50;;;14.40;99.90;;;;;;4981289;28;20058;-78
2023/06/30 03:35:28;;;;;;;1.00;0.70;;;14.40;99.90;;;;;;4992360;28;20057;-78
2023/06/30 03:37:55;;;;;;;0.95;0.63;;;14.30;99.90;;;;;;5003050;28;20474;-78
2023/06/30 03:40:22;;;;;;;0.75;0.60;;;14.30;99.90;;;;;;4984593;28;20054;-77
2023/06/30 03:42:49;;;;;;;0.80;0.57;;;14.30;99.90;;;;;;4985334;28;20049;-78
2023/06/30 03:45:15;;;;;;;1.13;0.60;;;14.30;99.90;;;;;;5006075;28;20050;-78
2023/06/30 03:47:42;;;;;;;0.90;0.75;;;14.30;99.90;;;;;;5012625;28;20104;-78
2023/06/30 03:50:09;;;;;;;0.57;0.50;;;14.30;99.90;;;;;;5016763;28;20089;-77
2023/06/30 03:52:36;;;;;;;0.82;0.57;;;14.30;99.90;;;;;;4995476;28;20108;-78
2023/06/30 03:55:03;;;;;;;0.40;0.40;;;14.30;99.90;;;;;;4987826;28;20646;-79
2023/06/30 03:57:30;;;;;;;1.10;0.70;;;14.30;99.90;;;;;;5012726;28;20049;-79
2023/06/30 03:59:57;;;;;;;1.08;0.60;;;14.20;99.90;;;;;;5002186;28;20104;-78
2023/06/30 04:02:24;;;;;;;0.85;0.50;;;14.10;99.90;;;;;;4968920;28;20490;-78
2023/06/30 04:04:51;;;;;;;0.80;0.52;;;14.10;99.90;;;;;;4985279;28;20046;-77
2023/06/30 04:07:18;;;;;;;0.55;0.50;;;14.10;99.90;;;;;;4994767;28;20042;-78
2023/06/30 04:09:45;;;;;;;0.43;0.30;;;14.00;99.90;;;;;;4986062;28;20042;-78
2023/06/30 04:12:11;;;;;;;0.57;0.40;;;14.00;99.90;;;;;;4996321;28;20054;-78
2023/06/30 04:14:38;;;;;;;0.50;0.40;;;14.00;99.90;;;;;;4974074;28;20058;-78
2023/06/30 04:17:05;;;;;;;1.02;0.47;;;14.00;99.90;;;;;;4997522;28;20057;-78
2023/06/30 04:19:32;;;;;;;1.05;0.60;;;14.10;99.90;;;;;;4997927;28;20125;-78
2023/06/30 04:21:59;;;;;;;1.05;0.57;;;14.00;99.90;;;;;;4989628;28;20050;-78
2023/06/30 04:24:30;;;;;;;1.10;0.60;;;14.00;99.90;;;;;;4990096;28;20133;-78
2023/06/30 04:26:57;;;;;;;0.68;0.43;;;14.00;99.90;;;;;;5002897;28;20046;-78
2023/06/30 04:29:24;;;;;;;0.50;0.38;;;14.00;99.90;;;;;;4979416;28;20063;-78
2023/06/30 04:31:50;;;;;;;0.85;0.65;;;14.00;99.90;;;;;;4970677;28;20132;-78
2023/06/30 04:34:17;;;;;;;0.70;0.40;;;14.00;99.90;;;;;;4985326;28;20109;-78
2023/06/30 04:36:44;;;;;;;0.35;0.35;;;14.00;99.90;;;;;;4991330;28;20050;-78
2023/06/30 04:39:11;;;;;;;0.57;0.50;;;14.00;99.90;;;;;;4985447;28;20050;-78
2023/06/30 04:41:38;;;;;;;0.50;0.45;;;14.10;99.90;;;;;;4989085;28;20089;-78
2023/06/30 04:44:04;;;;;;;0.82;0.50;;;14.10;99.90;;;;;;4988734;28;20096;-78
2023/06/30 04:46:31;;;;;;;1.15;0.80;;;14.10;99.90;;;;;;4995397;28;20050;-78
2023/06/30 04:49:00;;;;;;;0.82;0.50;;;14.10;99.90;;;;;;4986312;28;20120;-78
2023/06/30 04:51:27;;;;;;;1.02;0.70;;;14.20;99.90;;;;;;4954430;28;20046;-78
2023/06/30 04:53:54;;;;;;;0.88;0.57;;;14.20;99.90;;;;;;4983180;28;20091;-78
2023/06/30 04:56:21;;;;;;;0.45;0.45;;;14.20;99.90;;;;;;4995003;28;20085;-78
2023/06/30 04:58:49;;;;;;;0.52;0.40;;;14.20;99.90;;;;;;4989054;28;20046;-78
2023/06/30 05:01:15;;;;;;;1.33;0.57;;;14.20;99.90;;;;;;4990415;28;20836;-78
2023/06/30 05:03:42;;;;;;;0.73;0.50;;;14.30;99.90;;;;;;4973572;28;20053;-78
2023/06/30 05:06:09;;;;;;;2.42;0.40;;;14.30;99.90;;;;;;4991471;28;20129;-79
2023/06/30 05:08:36;;;;;;;1.25;0.73;;;14.30;99.90;;;;;;5001100;28;20976;-79
2023/06/30 05:11:03;;;;;;;1.25;0.40;;;14.40;99.90;;;;;;4970806;28;20054;-79
2023/06/30 05:13:32;;;;;;;0.98;0.60;;;14.40;99.90;;;;;;4974627;28;20092;-79
2023/06/30 05:15:59;;;;;;;0.75;0.38;;;14.50;99.90;;;;;;4994033;28;20099;-77
2023/06/30 05:18:26;;;;;;;0.60;0.40;;;14.40;99.90;;;;;;4987067;28;21091;-77
2023/06/30 05:20:53;;;;;;;0.57;0.45;;;14.50;99.90;;;;;;5006106;28;20050;-77
2023/06/30 05:23:19;;;;;;;0.60;0.40;;;14.40;99.90;;;;;;4984873;28;20143;-78
2023/06/30 05:25:46;;;;;;;0.45;0.30;;;14.50;99.90;;;;;;4993102;28;20880;-78
2023/06/30 05:28:13;;;;;;;0.70;0.50;;;14.50;99.90;;;;;;4978718;28;20072;-77
2023/06/30 05:30:40;;;;;;;0.47;0.32;;;14.50;99.90;;;;;;4994512;28;20446;-77
2023/06/30 05:33:07;;;;;;;0.75;0.50;;;14.60;99.90;;;;;;4993007;28;20429;-78
2023/06/30 05:35:34;;;;;;;0.90;0.50;;;14.50;99.90;;;;;;5000858;28;20119;-78
2023/06/30 05:38:00;;;;;;;1.02;0.60;;;14.60;99.90;;;;;;5004799;28;20049;-78
2023/06/30 05:40:27;;;;;;;0.93;0.52;;;14.60;99.90;;;;;;4994904;28;20050;-77
2023/06/30 05:42:54;;;;;;;0.80;0.60;;;14.70;99.90;;;;;;4993387;28;20053;-78
2023/06/30 05:45:21;;;;;;;0.90;0.63;;;14.70;99.90;;;;;;5012876;28;20073;-78
2023/06/30 05:47:47;;;;;;;0.70;0.47;;;14.80;99.90;;;;;;4997032;28;20096;-78
2023/06/30 05:50:14;;;;;;;1.33;0.80;;;14.80;99.90;;;;;;4975573;28;20842;-77
2023/06/30 05:52:41;;;;;;;1.33;0.50;;;14.80;99.90;;;;;;5002046;28;20057;-78
2023/06/30 05:55:08;;;;;;;0.68;0.45;;;14.80;99.90;;;;;;5003414;28;20391;-78
2023/06/30 05:57:34;;;;;;;0.90;0.50;;;14.80;99.90;;;;;;5015659;28;20108;-78
2023/06/30 06:00:01;;;;;;;1.20;0.80;;;14.90;99.90;;;;;;4998584;28;20072;-79
2023/06/30 06:02:28;;;;;;;1.25;0.70;;;14.90;99.90;;;;;;4981006;28;20169;-78
2023/06/30 06:04:55;;;;;;;0.60;0.50;;;15.00;99.90;;;;;;5003241;28;20488;-79
2023/06/30 06:07:22;;;;;;;1.30;0.77;;;15.00;99.90;;;;;;5002171;28;20598;-78
2023/06/30 06:09:49;;;;;;;0.50;0.35;;;15.10;99.90;;;;;;4993371;28;20060;-78
2023/06/30 06:12:16;;;;;;;0.65;0.50;;;15.20;99.90;;;;;;4966556;28;20141;-78
2023/06/30 06:14:43;;;;;;;0.75;0.45;;;15.30;99.90;;;;;;4970929;28;20190;-78
2023/06/30 06:17:10;;;;;;;0.73;0.50;;;15.40;99.90;;;;;;4988956;28;20096;-80
2023/06/30 06:19:37;;;;;;;0.85;0.70;;;15.50;99.90;;;;;;4972681;28;20521;-78
2023/06/30 06:22:04;;;;;;;0.95;0.68;;;15.50;99.90;;;;;;4967136;28;20156;-78
2023/06/30 06:24:30;;;;;;;1.05;0.57;;;15.60;99.90;;;;;;5002744;28;20107;-78
2023/06/30 06:26:57;;;;;;;0.80;0.60;;;15.60;99.90;;;;;;4964088;28;20073;-79
2023/06/30 06:29:24;;;;;;;2.00;0.60;;;15.70;99.90;;;;;;4986009;28;20077;-78
2023/06/30 06:31:51;;;;;;;1.17;0.52;;;15.80;99.90;;;;;;4990063;28;20382;-79
2023/06/30 06:34:21;;;;;;;0.63;0.40;;;15.90;99.90;;;;;;4982837;28;20076;-79
2023/06/30 06:36:48;;;;;;;0.70;0.47;;;16.00;99.90;;;;;;4979252;28;20145;-78
2023/06/30 06:39:15;;;;;;;0.75;0.40;;;16.10;99.90;;;;;;4993654;28;20490;-78
2023/06/30 06:41:42;;;;;;;0.40;0.40;;;16.20;99.90;;;;;;5003290;28;20053;-78
2023/06/30 06:44:08;;;;;;;0.55;0.40;;;16.30;99.90;;;;;;4982639;28;20050;-77
2023/06/30 06:46:35;;;;;;;0.70;0.57;;;16.40;99.90;;;;;;4999561;28;20045;-77
2023/06/30 06:49:02;;;;;;;1.98;0.60;;;16.40;99.90;;;;;;4984578;28;20119;-78
2023/06/30 06:51:29;;;;;;;0.73;0.50;;;16.40;99.90;;;;;;4978823;28;20065;-77
2023/06/30 06:53:56;;;;;;;0.80;0.50;;;16.40;99.90;;;;;;5002351;28;20041;-78
2023/06/30 06:56:23;;;;;;;0.80;0.60;;;16.50;99.90;;;;;;4977965;28;20617;-78
2023/06/30 06:58:49;;;;;;;1.10;0.40;;;16.60;99.90;;;;;;4971815;28;20053;-78
2023/06/30 07:01:16;;;;;;;1.42;0.45;;;16.80;99.90;;;;;;4982764;28;20484;-79
2023/06/30 07:03:43;;;;;;;1.85;0.38;;;16.80;99.90;;;;;;4986433;28;20152;-79
2023/06/30 07:06:10;;;;;;;0.30;0.30;;;17.00;99.90;;;;;;4983540;28;20418;-78
2023/06/30 07:08:38;;;;;;;2.15;0.68;;;17.20;99.90;;;;;;4999075;28;20148;-78
2023/06/30 07:11:08;;;;;;;0.65;0.50;;;17.40;99.90;;;;;;4995347;28;20077;-78
2023/06/30 07:13:35;;;;;;;1.30;0.70;;;17.50;99.90;;;;;;4994694;28;20049;-78
2023/06/30 07:16:02;;;;;;;1.50;0.52;;;17.50;99.90;;;;;;4966270;28;20042;-78
2023/06/30 07:18:29;;;;;;;0.75;0.70;;;17.40;99.90;;;;;;4997472;28;20051;-78
2023/06/30 07:20:56;;;;;;;0.77;0.50;;;17.50;99.90;;;;;;4991155;28;20073;-78
2023/06/30 07:23:23;;;;;;;0.85;0.50;;;17.60;99.90;;;;;;4995593;28;20054;-79
2023/06/30 07:25:53;;;;;;;0.70;0.40;;;17.70;99.90;;;;;;5012914;28;20050;-78
2023/06/30 07:28:19;;;;;;;0.63;0.40;;;17.80;99.90;;;;;;4985662;28;20046;-78
2023/06/30 07:30:46;;;;;;;0.57;0.40;;;17.80;99.90;;;;;;4985964;28;20494;-79
2023/06/30 07:33:13;;;;;;;0.38;0.32;;;18.00;99.90;;;;;;5003448;28;20064;-80
2023/06/30 07:35:40;;;;;;;1.23;0.52;;;18.00;99.90;;;;;;5008233;28;20525;-79
2023/06/30 07:38:07;;;;;;;0.32;0.30;;;18.10;99.90;;;;;;4980492;28;20054;-79
2023/06/30 07:40:35;;;;;;;0.55;0.40;;;18.20;99.90;;;;;;5012838;28;20111;-78
2023/06/30 07:43:04;;;;;;;0.93;0.40;;;18.30;99.90;;;;;;5014739;28;20057;-79
2023/06/30 07:45:32;;;;;;;0.80;0.38;;;18.30;99.90;;;;;;4996000;28;20108;-79
2023/06/30 07:47:59;;;;;;;0.55;0.30;;;18.30;99.90;;;;;;4971555;28;20117;-80
2023/06/30 07:50:26;;;;;;;0.73;0.32;;;18.30;99.90;;;;;;4987725;28;20042;-79
2023/06/30 07:52:53;;;;;;;0.55;0.50;;;18.20;99.90;;;;;;4995602;28;20107;-78
2023/06/30 07:55:19;;;;;;;0.80;0.40;;;18.10;99.90;;;;;;5003766;28;20049;-79
2023/06/30 07:57:47;;;;;;;0.43;0.43;;;18.00;99.90;;;;;;4989495;28;20049;-79
2023/06/30 08:00:21;;;;;;;0.75;0.50;;;18.00;99.90;;;;;;4992167;28;20061;-78
2023/06/30 08:02:48;;;;;;;1.05;0.30;;;18.00;99.90;;;;;;5007171;28;20058;-79
2023/06/30 08:05:15;;;;;;;0.77;0.52;;;18.00;99.90;;;;;;4994980;28;20111;-79
2023/06/30 08:07:42;;;;;;;1.45;0.47;;;18.10;99.90;;;;;;4968522;28;20057;-79
2023/06/30 08:10:16;;;;;;;1.27;0.52;;;18.20;99.90;;;;;;4999550;28;20053;-79
2023/06/30 08:12:43;;;;;;;0.95;0.60;;;18.20;99.90;;;;;;4976124;28;20075;-78
2023/06/30 08:15:10;;;;;;;0.85;0.65;;;18.30;99.90;;;;;;4992361;28;20152;-79
2023/06/30 08:17:36;;;;;;;0.98;0.50;;;18.50;99.70;;;;;;4968653;28;20057;-78
2023/06/30 08:20:23;;;;;;;1.17;0.55;;;18.80;99.60;;;;;;4999987;28;20177;-79
2023/06/30 08:22:51;;;;;;;1.65;0.70;;;19.10;98.60;;;;;;5000152;28;20050;-78
2023/06/30 08:25:24;;;;;;;0.88;0.40;;;19.40;98.60;;;;;;4987384;28;20060;-79
2023/06/30 08:27:51;;;;;;;0.63;0.50;;;19.50;98.30;;;;;;4992760;28;20085;-79
2023/06/30 08:30:18;;;;;;;0.75;0.63;;;19.60;98.20;;;;;;5011120;28;20061;-79
2023/06/30 08:32:50;;;;;;;0.85;0.30;;;19.90;98.10;;;;;;5016434;28;20058;-79
2023/06/30 08:35:16;;;;;;;0.70;0.50;;;20.00;97.30;;;;;;4969378;28;20046;-79
2023/06/30 08:37:44;;;;;;;0.63;0.35;;;20.10;96.90;;;;;;4972983;28;20112;-79
2023/06/30 08:40:11;;;;;;;0.50;0.45;;;20.00;97.20;;;;;;4988782;28;20521;-78
2023/06/30 08:42:40;;;;;;;1.40;0.75;;;20.10;97.30;;;;;;4973303;28;20054;-78
2023/06/30 08:45:08;;;;;;;1.35;0.50;;;20.20;96.60;;;;;;4975147;28;20120;-77
2023/06/30 08:47:35;;;;;;;1.60;0.80;;;20.20;96.90;;;;;;5004358;28;20050;-79
2023/06/30 08:50:02;;;;;;;0.77;0.40;;;20.20;97.00;;;;;;4992888;28;20042;-79
2023/06/30 08:52:29;;;;;;;0.82;0.60;;;20.10;97.10;;;;;;5006593;28;20046;-79
2023/06/30 08:54:56;;;;;;;1.48;0.80;;;20.10;97.10;;;;;;4973426;28;20054;-79
2023/06/30 08:57:23;;;;;;;1.13;0.60;;;20.20;97.50;;;;;;4972738;28;20060;-79
2023/06/30 08:59:49;;;;;;;1.27;0.50;;;20.30;97.30;;;;;;4971708;28;20132;-78
2023/06/30 09:02:16;;;;;;;1.27;0.65;;;20.50;97.60;;;;;;4972515;28;20124;-79
2023/06/30 09:04:43;;;;;;;1.10;0.70;;;20.40;97.00;;;;;;4972553;28;20484;-79
2023/06/30 09:07:15;;;;;;;1.60;0.70;;;20.40;96.70;;;;;;4989831;28;20053;-78
2023/06/30 09:09:42;;;;;;;1.02;0.52;;;20.50;96.90;;;;;;4972453;28;20109;-79
2023/06/30 09:12:09;;;;;;;0.90;0.65;;;20.50;96.30;;;;;;5006669;28;20052;-79
2023/06/30 09:14:37;;;;;;;2.28;0.55;;;20.30;96.60;;;;;;4956900;28;20065;-78
2023/06/30 09:17:05;;;;;;;0.52;0.52;;;20.30;97.50;;;;;;4989419;28;20496;-78
2023/06/30 09:19:31;;;;;;;1.05;0.63;;;20.10;98.00;;;;;;4972046;28;20094;-78
2023/06/30 09:21:58;;;;;;;0.57;0.43;;;20.00;98.20;;;;;;5006192;28;20149;-78
2023/06/30 09:24:31;;;;;;;0.82;0.50;;;19.90;98.10;;;;;;4986200;28;20050;-78
2023/06/30 09:26:58;;;;;;;1.08;0.52;;;19.80;98.30;;;;;;4985138;28;20536;-78
2023/06/30 09:29:25;;;;;;;1.20;0.93;;;19.70;97.30;;;;;;5005221;28;20089;-78
2023/06/30 09:31:52;;;;;;;0.95;0.52;;;19.70;97.10;;;;;;4988547;28;20686;-78
2023/06/30 09:34:19;;;;;;;1.08;0.68;;;19.60;97.30;;;;;;4971599;28;20158;-78
2023/06/30 09:36:50;;;;;;;0.80;0.40;;;19.60;97.20;;;;;;4972286;28;20046;-79
2023/06/30 09:39:16;;;;;;;1.02;0.57;;;19.60;97.00;;;;;;4988573;28;20120;-78
2023/06/30 09:41:44;;;;;;;2.03;1.10;;;19.70;97.30;;;;;;5005313;28;20111;-78
2023/06/30 09:44:11;;;;;;;1.17;0.85;;;19.70;97.30;;;;;;4986772;28;20188;-79
2023/06/30 09:46:51;;;;;;;1.90;0.93;;;19.90;98.30;;;;;;4985349;28;20057;-78
2023/06/30 09:49:33;;;;;;;1.77;0.90;;;20.00;98.20;;;;;;4989898;28;20640;-79
2023/06/30 09:52:04;;;;;;;1.05;0.60;;;20.20;97.80;;;;;;4995552;28;20133;-79
2023/06/30 09:54:33;;;;;;;1.25;0.60;;;20.40;98.30;;;;;;4968802;28;20061;-78
2023/06/30 09:57:05;;;;;;;1.13;0.60;;;20.60;98.20;;;;;;4972989;28;20080;-79
2023/06/30 09:59:32;;;;;;;1.23;0.75;;;20.60;97.90;;;;;;4995446;28;20053;-79
2023/06/30 10:01:59;;;;;;;2.10;0.70;;;20.50;97.60;;;;;;4996905;28;20042;-79
2023/06/30 10:04:29;;;;;;;1.33;0.85;;;20.50;98.30;;;;;;4967755;28;20148;-78
2023/06/30 10:06:56;;;;;;;1.42;0.80;;;20.80;98.10;;;;;;4965138;28;20053;-80
2023/06/30 10:09:24;;;;;;;0.80;0.70;;;21.10;97.50;;;;;;4976891;28;20050;-79
2023/06/30 10:11:52;;;;;;;1.90;1.00;;;21.30;97.50;;;;;;5000275;28;20057;-79
2023/06/30 10:14:30;;;;;;;1.13;0.80;;;21.50;97.30;;;;;;4997855;28;20049;-79
2023/06/30 10:16:57;;;;;;;0.82;0.60;;;21.70;97.90;;;;;;5007704;28;20116;-79
2023/06/30 10:19:24;;;;;;;1.10;0.80;;;21.90;97.50;;;;;;4965053;28;20442;-78
2023/06/30 10:21:51;;;;;;;2.45;1.30;;;22.00;97.60;;;;;;4970322;28;20512;-79
2023/06/30 10:24:20;;;;;;;2.80;1.13;;;22.10;97.70;;;;;;4964541;28;20073;-78
2023/06/30 10:26:47;;;;;;;1.50;0.70;;;22.20;97.70;;;;;;4980422;28;20107;-78
2023/06/30 10:29:14;;;;;;;2.40;1.25;;;22.50;97.90;;;;;;4980201;28;20107;-78
2023/06/30 10:31:42;;;;;;;1.73;1.00;;;22.50;97.50;;;;;;4996305;28;20053;-78
2023/06/30 10:34:09;;;;;;;1.42;0.85;;;22.30;97.20;;;;;;4971553;28;20042;-78
2023/06/30 10:36:36;;;;;;;1.50;0.88;;;22.30;97.50;;;;;;4986277;28;20045;-79
2023/06/30 10:39:03;;;;;;;2.45;1.05;;;22.40;97.70;;;;;;4982953;28;20049;-79
2023/06/30 10:41:30;;;;;;;1.63;0.88;;;22.50;98.00;;;;;;4998212;28;20073;-79
2023/06/30 10:44:03;;;;;;;2.25;0.98;;;22.50;97.60;;;;;;4960617;28;20511;-79
2023/06/30 10:46:46;;;;;;;;;;;22.40;97.80;;;;;;5005228;28;20053;-78
2023/06/30 10:49:31;;;;;;;1.42;0.73;;;22.40;97.20;;;;;;5000090;28;19953;-79
2023/06/30 10:52:00;;;;;;;1.23;0.90;;;22.40;97.20;;;;;;5003256;28;20107;-78
2023/06/30 10:54:31;;;;;;;1.42;0.70;;;22.50;98.00;;;;;;4971332;28;20413;-79
2023/06/30 10:57:16;;;;;;;2.15;1.05;;;22.40;97.30;;;;;;4981419;28;20044;-78
2023/06/30 10:59:44;;;;;;;1.10;0.60;;;22.40;97.90;;;;;;4988039;28;20079;-78
2023/06/30 11:02:17;;;;;;;1.05;0.80;;;22.50;97.80;;;;;;4969514;28;20386;-79
2023/06/30 11:04:45;;;;;;;1.55;0.85;;;22.80;97.30;;;;;;5003047;28;20121;-79
2023/06/30 11:07:23;;;;;;;1.20;0.80;;;22.90;97.40;;;;;;4985610;28;20057;-80
2023/06/30 11:09:50;;;;;;;3.00;0.90;;;22.80;97.20;;;;;;4983356;28;20057;-80
2023/06/30 11:12:23;;;;;;;2.10;0.95;;;22.60;97.50;;;;;;4993104;28;20209;-80
2023/06/30 11:14:59;;;;;;;1.48;1.00;;;22.50;97.30;;;;;;4973266;28;20117;-79
2023/06/30 11:17:51;;;;;;;1.58;0.93;;;22.60;97.60;;;;;;4981941;28;20053;-78
2023/06/30 11:20:18;;;;;;;2.00;0.98;;;22.80;97.50;;;;;;4976559;28;20373;-78
2023/06/30 11:23:15;;;;;;;1.40;0.80;;;22.90;98.10;;;;;;4986576;28;20057;-80
2023/06/30 11:25:42;;;;;;;2.08;1.13;;;22.70;97.50;;;;;;4964280;28;20103;-80
2023/06/30 11:28:11;;;;;;;1.88;1.00;;;22.40;97.80;;;;;;4993733;28;20054;-80
2023/06/30 11:30:38;;;;;;;1.00;0.70;;;22.30;97.70;;;;;;4989249;28;20054;-80
2023/06/30 11:33:06;;;;;;;1.08;0.90;;;22.10;97.80;;;;;;4972545;28;20069;-78
2023/06/30 11:35:34;;;;;;;1.75;1.10;;;21.60;98.20;;;;;;4967043;28;20152;-80
2023/06/30 11:38:01;;;;;;;1.30;1.10;;;21.50;98.70;;;;;;4951532;28;20132;-80
2023/06/30 11:40:27;;;;;;;2.33;0.98;;;21.50;98.90;;;;;;4970772;28;20561;-79
2023/06/30 11:42:55;;;;;;;1.52;0.90;;;21.50;99.10;;;;;;4985932;28;20571;-80
2023/06/30 11:45:27;;;;;;;1.42;0.90;;;21.60;99.30;;;;;;4954517;28;20107;-80
2023/06/30 11:47:55;;;;;;;1.92;1.13;;;21.70;99.40;;;;;;4971901;28;20061;-80
2023/06/30 11:50:22;;;;;;;1.30;1.00;;;21.80;99.30;;;;;;4969236;28;20050;-80
2023/06/30 11:52:49;;;;;;;1.67;1.02;;;21.60;99.30;;;;;;4970601;28;20042;-80
2023/06/30 11:55:16;;;;;;;1.80;1.05;;;21.50;99.40;;;;;;4969375;28;20120;-79
2023/06/30 11:57:46;;;;;;;1.50;0.88;;;21.40;99.40;;;;;;4966654;28;20058;-80
2023/06/30 12:00:16;;;;;;;1.67;0.90;;;21.30;99.50;;;;;;5000094;28;20536;-80
2023/06/30 12:02:47;;;;;;;1.70;0.93;;;21.20;99.70;;;;;;4970009;28;20632;-80
2023/06/30 12:05:25;;;;;;;2.25;1.20;;;21.00;99.90;;;;;;4955133;28;20108;-80
2023/06/30 12:07:55;;;;;;;1.58;0.80;;;21.00;99.90;;;;;;4971449;28;20045;-79
2023/06/30 12:10:39;;;;;;;2.00;1.10;;;21.00;99.90;;;;;;4980374;28;20068;-80
2023/06/30 12:13:07;;;;;;;2.38;1.30;;;20.70;99.90;;;;;;4992504;28;20053;-80
2023/06/30 12:15:35;;;;;;;1.58;1.10;;;20.70;99.90;;;;;;4992988;28;20045;-80
2023/06/30 12:18:04;;;;;;;3.05;1.10;;;20.60;99.90;;;;;;4976427;28;20275;-80
2023/06/30 12:20:35;;;;;;;3.58;1.17;;;20.40;99.90;;;;;;4984590;28;20055;-80
2023/06/30 12:23:06;;;;;;;1.27;0.80;;;20.50;99.90;;;;;;4996241;28;20061;-80
2023/06/30 12:25:33;;;;;;;2.10;0.88;;;20.90;99.90;;;;;;4991748;28;20060;-80
2023/06/30 12:28:04;;;;;;;2.17;1.20;;;21.20;99.90;;;;;;4991691;28;20042;-78
2023/06/30 12:30:31;;;;;;;2.60;1.35;;;21.50;99.90;;;;;;4982897;28;20093;-79
2023/06/30 12:32:59;;;;;;;2.78;1.02;;;21.60;99.90;;;;;;4960052;28;20054;-79
2023/06/30 12:35:29;;;;;;;1.30;1.00;;;21.60;99.90;;;;;;4951387;28;20050;-80
2023/06/30 12:37:56;;;;;;;2.67;1.23;;;21.60;99.90;;;;;;5001768;28;20045;-78
2023/06/30 12:40:24;;;;;;;1.55;0.90;;;21.60;99.90;;;;;;4969721;28;20390;-79
2023/06/30 12:42:54;;;;;;;2.38;1.10;;;21.90;99.90;;;;;;4986457;28;20046;-79
2023/06/30 12:45:20;;;;;;;1.55;0.90;;;22.00;99.90;;;;;;4955947;28;20047;-79
2023/06/30 12:47:48;;;;;;;4.07;1.33;;;22.00;99.90;;;;;;4971135;28;20109;-79
2023/06/30 12:50:15;;;;;;;1.38;0.82;;;21.50;99.90;;;;;;4987047;28;20050;-79
2023/06/30 12:52:42;;;;;;;2.10;0.70;;;21.00;99.90;;;;;;4979097;28;20046;-78